Time;durP1;ratioP1;P1;durP2;ratioP2;P2;SDS_P1;SDS_P2;PMS_P1;PMS_P2;Temp;Humidity;BMP_temperature;BMP_pressure;BME280_temperature;BME280_humidity;BME280_pressure;Samples;Min_cycle;Max_cycle;Signal;HPM_P1;HPM_P2
2021/04/24 00:00:38;;;;;;;;;;;;;;;-0.69;74.08;96846.06;3624518;39;19949;-55
2021/04/24 00:03:08;;;;;;;;;;;;;;;-0.77;73.98;96849.44;3618852;39;19943;-55
2021/04/24 00:05:38;;;;;;;;;;;;;;;-0.75;74.62;96850.09;3606947;39;19939;-54
2021/04/24 00:08:06;;;;;;;;;;;;;;;-0.82;75.10;96856.91;3620330;39;19943;-54
2021/04/24 00:10:34;;;;;;;;;;;;;;;-0.85;74.88;96854.63;3609403;39;19954;-55
2021/04/24 00:13:04;;;;;;;;;;;;;;;-0.85;74.25;96849.44;3618839;39;19942;-55
2021/04/24 00:15:31;;;;;;;;;;;;;;;-0.80;74.54;96854.97;3606781;39;20030;-55
2021/04/24 00:18:03;;;;;;;;;;;;;;;-0.80;74.80;96860.16;3620455;39;20220;-55
2021/04/24 00:20:30;;;;;;;;;;;;;;;-0.79;74.39;96859.16;3615927;39;19943;-54
2021/04/24 00:22:57;;;;;;;;;;;;;;;-0.85;74.81;96845.06;3621093;39;20265;-54
2021/04/24 00:25:24;;;;;;;;;;;;;;;-0.85;74.25;96852.03;3619525;39;19946;-55
2021/04/24 00:27:51;;;;;;;;;;;;;;;-0.87;74.22;96854.78;3625137;39;20365;-54
2021/04/24 00:30:19;;;;;;;;;;;;;;;-0.88;74.14;96860.13;3611473;39;20000;-55
2021/04/24 00:32:47;;;;;;;;;;;;;;;-0.91;74.79;96855.25;3609152;39;19939;-55
2021/04/24 00:35:16;;;;;;;;;;;;;;;-0.93;74.82;96856.25;3620647;39;20199;-56
2021/04/24 00:37:43;;;;;;;;;;;;;;;-0.94;75.09;96854.63;3616536;39;19947;-53
2021/04/24 00:40:11;;;;;;;;;;;;;;;-0.94;75.27;96853.78;3626179;39;19950;-56
2021/04/24 00:42:38;;;;;;;;;;;;;;;-0.95;74.84;96855.59;3620283;39;19946;-54
2021/04/24 00:45:07;;;;;;;;;;;;;;;-0.99;75.47;96859.44;3617692;39;19996;-54
2021/04/24 00:47:34;;;;;;;;;;;;;;;-0.98;75.41;96865.44;3629421;39;19969;-54
2021/04/24 00:50:03;;;;;;;;;;;;;;;-0.97;75.40;96859.28;3620381;39;19943;-53
2021/04/24 00:52:30;;;;;;;;;;;;;;;-0.99;75.70;96859.44;3623210;39;19974;-54
2021/04/24 00:54:57;;;;;;;;;;;;;;;-1.00;75.26;96863.00;3624110;39;19947;-54
2021/04/24 00:57:25;;;;;;;;;;;;;;;-1.01;75.38;96860.59;3624000;39;19946;-54
2021/04/24 00:59:51;;;;;;;;;;;;;;;-1.13;75.76;96854.88;3623306;39;20348;-54
2021/04/24 01:02:19;;;;;;;;;;;;;;;-1.20;75.53;96851.31;3622744;39;19949;-56
2021/04/24 01:04:46;;;;;;;;;;;;;;;-1.17;75.85;96845.84;3622484;39;19985;-53
2021/04/24 01:07:13;;;;;;;;;;;;;;;-1.16;75.23;96855.19;3622917;39;19943;-53
2021/04/24 01:09:40;;;;;;;;;;;;;;;-1.15;75.30;96851.63;3616347;39;19943;-59
2021/04/24 01:12:08;;;;;;;;;;;;;;;-1.19;75.91;96853.75;3631362;39;19950;-58
2021/04/24 01:14:35;;;;;;;;;;;;;;;-1.20;75.14;96852.13;3613578;39;19943;-61
2021/04/24 01:17:02;;;;;;;;;;;;;;;-1.25;76.02;96854.38;3624502;39;19943;-56
2021/04/24 01:19:30;;;;;;;;;;;;;;;-1.30;76.17;96852.28;3611349;39;20254;-54
2021/04/24 01:22:10;;;;;;;;;;;;;;;-1.31;76.76;96853.25;3621227;39;19935;-54
2021/04/24 01:24:37;;;;;;;;;;;;;;;-1.32;75.95;96854.19;3609151;39;19943;-54
2021/04/24 01:27:05;;;;;;;;;;;;;;;-1.26;76.40;96858.72;3623074;39;20283;-58
2021/04/24 01:29:34;;;;;;;;;;;;;;;-1.25;76.42;96844.81;3618969;39;19943;-54
2021/04/24 01:32:02;;;;;;;;;;;;;;;-1.22;75.60;96843.69;3621039;39;20000;-54
2021/04/24 01:34:29;;;;;;;;;;;;;;;-1.19;76.36;96843.38;3620236;39;20028;-54
2021/04/24 01:36:57;;;;;;;;;;;;;;;-1.17;75.62;96844.03;3620458;39;20310;-54
2021/04/24 01:39:25;;;;;;;;;;;;;;;-1.18;75.67;96839.03;3621601;39;19947;-54
2021/04/24 01:41:52;;;;;;;;;;;;;;;-1.17;76.29;96836.28;3611370;39;19943;-54
2021/04/24 01:44:19;;;;;;;;;;;;;;;-1.13;75.99;96844.53;3622895;39;19935;-55
2021/04/24 01:46:46;;;;;;;;;;;;;;;-1.13;76.63;96834.16;3622619;39;19943;-59
2021/04/24 01:49:13;;;;;;;;;;;;;;;-1.10;76.63;96836.44;3618652;39;19939;-56
2021/04/24 01:51:41;;;;;;;;;;;;;;;-1.09;76.77;96843.25;3622017;39;19942;-53
2021/04/24 01:54:08;;;;;;;;;;;;;;;-1.11;76.91;96851.16;3610909;39;19942;-53
2021/04/24 01:56:45;;;;;;;;;;;;;;;-1.15;77.14;96844.69;3608081;39;19938;-54
2021/04/24 01:59:13;;;;;;;;;;;;;;;-1.09;77.68;96848.44;3612879;39;20349;-53
2021/04/24 02:01:41;;;;;;;;;;;;;;;-1.02;77.67;96835.66;3629193;39;19949;-53
2021/04/24 02:04:08;;;;;;;;;;;;;;;-0.99;77.59;96846.50;3618246;39;19939;-54
2021/04/24 02:06:37;;;;;;;;;;;;;;;-0.95;77.70;96839.22;3620370;39;21824;-54
2021/04/24 02:09:07;;;;;;;;;;;;;;;-0.95;77.41;96845.22;3619240;39;19939;-53
2021/04/24 02:11:34;;;;;;;;;;;;;;;-0.90;76.88;96841.31;3617995;39;20652;-54
2021/04/24 02:14:03;;;;;;;;;;;;;;;-0.82;76.81;96838.75;3607573;39;20000;-53
2021/04/24 02:16:30;;;;;;;;;;;;;;;-0.81;77.39;96838.59;3616131;39;19947;-55
2021/04/24 02:18:57;;;;;;;;;;;;;;;-0.76;77.17;96830.34;3619055;39;20280;-55
2021/04/24 02:21:25;;;;;;;;;;;;;;;-0.74;77.22;96825.81;3619469;39;20266;-55
2021/04/24 02:23:56;;;;;;;;;;;;;;;-0.70;77.38;96827.13;3619011;39;20211;-55
2021/04/24 02:26:22;;;;;;;;;;;;;;;-0.64;76.89;96821.28;3621024;39;19942;-53
2021/04/24 02:28:49;;;;;;;;;;;;;;;-0.54;75.98;96821.13;3622000;39;20000;-55
2021/04/24 02:31:16;;;;;;;;;;;;;;;-0.48;76.14;96811.88;3622314;39;20381;-55
2021/04/24 02:33:43;;;;;;;;;;;;;;;-0.49;75.49;96821.41;3621067;39;20009;-55
2021/04/24 02:36:12;;;;;;;;;;;;;;;-0.50;75.61;96812.06;3620281;39;20284;-55
2021/04/24 02:38:38;;;;;;;;;;;;;;;-0.52;75.92;96808.81;3624835;39;19957;-55
2021/04/24 02:41:08;;;;;;;;;;;;;;;-0.49;75.82;96810.25;3618625;39;19953;-54
2021/04/24 02:43:36;;;;;;;;;;;;;;;-0.57;76.43;96815.47;3621675;39;20276;-52
2021/04/24 02:46:02;;;;;;;;;;;;;;;-0.57;76.00;96818.84;3629208;39;19949;-54
2021/04/24 02:48:30;;;;;;;;;;;;;;;-0.56;76.35;96811.91;3618641;39;19943;-55
2021/04/24 02:50:57;;;;;;;;;;;;;;;-0.62;76.36;96800.41;3620072;39;20386;-53
2021/04/24 02:53:23;;;;;;;;;;;;;;;-0.66;77.00;96796.50;3621297;39;19947;-57
2021/04/24 02:55:50;;;;;;;;;;;;;;;-0.65;76.66;96798.91;3605423;39;19947;-55
2021/04/24 02:58:18;;;;;;;;;;;;;;;-0.57;76.55;96787.75;3619727;39;20292;-56
2021/04/24 03:00:45;;;;;;;;;;;;;;;-0.49;76.35;96794.72;3618822;39;19951;-56
2021/04/24 03:03:14;;;;;;;;;;;;;;;-0.43;76.02;96799.22;3627691;39;19962;-55
2021/04/24 03:05:42;;;;;;;;;;;;;;;-0.45;76.08;96793.41;3628755;39;19949;-54
2021/04/24 03:08:09;;;;;;;;;;;;;;;-0.42;76.46;96802.63;3611597;39;19950;-55
2021/04/24 03:10:37;;;;;;;;;;;;;;;-0.40;76.50;96803.28;3620509;39;20410;-56
2021/04/24 03:13:06;;;;;;;;;;;;;;;-0.32;76.41;96798.91;3620516;39;19939;-54
2021/04/24 03:15:33;;;;;;;;;;;;;;;-0.19;76.05;96792.41;3618639;39;19949;-56
2021/04/24 03:18:00;;;;;;;;;;;;;;;-0.24;76.84;96787.69;3618160;39;19947;-55
2021/04/24 03:20:27;;;;;;;;;;;;;;;-0.28;76.72;96794.19;3613265;39;19949;-55
2021/04/24 03:22:58;;;;;;;;;;;;;;;-0.23;76.24;96796.28;3621239;39;19973;-53
2021/04/24 03:25:25;;;;;;;;;;;;;;;-0.21;75.91;96797.75;3622037;39;20330;-55
2021/04/24 03:27:52;;;;;;;;;;;;;;;-0.18;76.47;96794.00;3613016;39;19935;-54
2021/04/24 03:30:19;;;;;;;;;;;;;;;-0.14;76.10;96792.69;3621064;39;19943;-54
2021/04/24 03:32:46;;;;;;;;;;;;;;;-0.08;75.21;96793.81;3611377;39;20715;-54
2021/04/24 03:35:13;;;;;;;;;;;;;;;-0.07;75.84;96796.25;3620215;39;19943;-57
2021/04/24 03:37:40;;;;;;;;;;;;;;;-0.06;76.24;96799.66;3621182;39;19947;-55
2021/04/24 03:40:08;;;;;;;;;;;;;;;-0.02;75.54;96798.34;3623818;39;20148;-54
2021/04/24 03:42:35;;;;;;;;;;;;;;;0.03;76.11;96808.22;3605536;39;19976;-55
2021/04/24 03:45:03;;;;;;;;;;;;;;;0.02;75.72;96804.00;3621027;39;21745;-54
2021/04/24 03:47:30;;;;;;;;;;;;;;;-0.01;75.93;96810.34;3621157;39;19947;-53
2021/04/24 03:49:57;;;;;;;;;;;;;;;0.05;75.76;96814.06;3610881;39;20486;-55
2021/04/24 03:52:24;;;;;;;;;;;;;;;0.12;75.56;96825.38;3617746;39;19947;-55
2021/04/24 03:54:51;;;;;;;;;;;;;;;0.17;74.97;96827.47;3609616;39;20497;-54
2021/04/24 03:57:18;;;;;;;;;;;;;;;0.23;74.94;96827.63;3614914;39;20299;-58
2021/04/24 03:59:46;;;;;;;;;;;;;;;0.26;74.82;96824.69;3606935;39;19931;-54
2021/04/24 04:02:13;;;;;;;;;;;;;;;0.30;74.78;96828.59;3616789;39;19949;-53
2021/04/24 04:04:40;;;;;;;;;;;;;;;0.36;74.56;96836.66;3619189;39;19939;-54
2021/04/24 04:07:08;;;;;;;;;;;;;;;0.47;74.26;96836.28;3618793;39;19942;-54
2021/04/24 04:09:35;;;;;;;;;;;;;;;0.57;73.23;96828.31;3612235;39;19983;-53
2021/04/24 04:12:02;;;;;;;;;;;;;;;0.60;73.53;96823.56;3617947;39;20311;-54
2021/04/24 04:14:29;;;;;;;;;;;;;;;0.63;73.49;96826.81;3619827;39;20021;-54
2021/04/24 04:16:56;;;;;;;;;;;;;;;0.68;73.18;96827.09;3617148;39;19939;-54
2021/04/24 04:19:23;;;;;;;;;;;;;;;0.70;73.29;96825.97;3613787;39;19943;-53
2021/04/24 04:21:51;;;;;;;;;;;;;;;0.70;73.26;96825.16;3619264;39;19943;-54
2021/04/24 04:24:18;;;;;;;;;;;;;;;0.75;72.73;96818.47;3619847;39;19949;-53
2021/04/24 04:26:45;;;;;;;;;;;;;;;0.80;72.83;96820.53;3612214;39;19943;-55
2021/04/24 04:29:12;;;;;;;;;;;;;;;0.92;72.11;96829.56;3604556;39;20766;-53
2021/04/24 04:31:39;;;;;;;;;;;;;;;0.98;72.43;96827.28;3615189;39;19942;-54
2021/04/24 04:34:06;;;;;;;;;;;;;;;0.98;72.70;96819.47;3614781;39;19953;-54
2021/04/24 04:36:33;;;;;;;;;;;;;;;1.04;71.94;96829.19;3618133;39;19943;-54
2021/04/24 04:39:00;;;;;;;;;;;;;;;1.11;72.01;96818.91;3614065;39;20304;-54
2021/04/24 04:41:27;;;;;;;;;;;;;;;1.18;71.49;96825.03;3616114;39;19951;-54
2021/04/24 04:43:54;;;;;;;;;;;;;;;1.18;72.15;96820.63;3615104;39;19943;-53
2021/04/24 04:46:21;;;;;;;;;;;;;;;1.23;71.15;96818.34;3605781;39;20436;-56
2021/04/24 04:48:49;;;;;;;;;;;;;;;1.30;71.68;96820.22;3619297;39;19953;-54
2021/04/24 04:51:16;;;;;;;;;;;;;;;1.36;70.79;96822.94;3619104;39;20321;-55
2021/04/24 04:53:43;;;;;;;;;;;;;;;1.54;70.33;96830.44;3628982;39;19969;-56
2021/04/24 04:56:12;;;;;;;;;;;;;;;1.84;69.50;96835.69;3609024;39;19947;-56
2021/04/24 04:58:39;;;;;;;;;;;;;;;2.39;67.50;96834.66;3620459;39;19939;-53
2021/04/24 05:01:11;;;;;;;;;;;;;;;2.41;67.43;96835.28;3615953;39;19961;-54
2021/04/24 05:03:39;;;;;;;;;;;;;;;2.59;67.22;96832.31;3620033;39;19947;-56
2021/04/24 05:06:06;;;;;;;;;;;;;;;2.58;66.68;96841.09;3618601;39;20486;-54
2021/04/24 05:08:35;;;;;;;;;;;;;;;2.56;66.49;96824.84;3617119;39;19957;-53
2021/04/24 05:11:03;;;;;;;;;;;;;;;2.60;66.87;96833.91;3618745;39;19943;-54
2021/04/24 05:13:30;;;;;;;;;;;;;;;2.66;66.21;96832.38;3623554;39;19937;-53
2021/04/24 05:15:57;;;;;;;;;;;;;;;2.79;65.94;96829.09;3618000;39;19943;-53
2021/04/24 05:18:24;;;;;;;;;;;;;;;2.88;65.68;96836.63;3617287;39;19951;-55
2021/04/24 05:20:51;;;;;;;;;;;;;;;3.02;64.58;96834.19;3616223;39;19951;-53
2021/04/24 05:23:18;;;;;;;;;;;;;;;3.07;64.44;96837.84;3619010;39;19947;-54
2021/04/24 05:25:45;;;;;;;;;;;;;;;3.21;64.13;96843.19;3619096;39;19957;-53
2021/04/24 05:28:12;;;;;;;;;;;;;;;3.37;63.49;96840.34;3617284;39;19947;-54
2021/04/24 05:30:39;;;;;;;;;;;;;;;3.47;62.98;96847.06;3614634;39;20219;-54
2021/04/24 05:33:06;;;;;;;;;;;;;;;3.56;61.81;96838.09;3611673;39;20389;-54
2021/04/24 05:35:33;;;;;;;;;;;;;;;3.65;61.04;96830.94;3620661;39;19980;-53
2021/04/24 05:38:01;;;;;;;;;;;;;;;3.71;61.54;96839.81;3621271;39;20425;-55
2021/04/24 05:40:28;;;;;;;;;;;;;;;3.85;61.11;96844.16;3606041;39;20284;-54
2021/04/24 05:42:55;;;;;;;;;;;;;;;3.94;61.45;96844.81;3617529;39;20402;-56
2021/04/24 05:45:22;;;;;;;;;;;;;;;4.02;60.37;96846.47;3621051;39;19943;-55
2021/04/24 05:47:50;;;;;;;;;;;;;;;3.98;60.80;96839.03;3619822;39;19943;-55
2021/04/24 05:50:18;;;;;;;;;;;;;;;4.00;61.29;96839.63;3621114;39;19943;-56
2021/04/24 05:52:51;;;;;;;;;;;;;;;4.13;61.26;96832.88;3624192;39;20419;-54
2021/04/24 05:55:18;;;;;;;;;;;;;;;4.30;60.85;96841.22;3615485;39;20700;-54
2021/04/24 05:57:44;;;;;;;;;;;;;;;4.46;59.69;96834.88;3611768;39;19942;-54
2021/04/24 06:00:16;;;;;;;;;;;;;;;4.53;59.92;96834.91;3619129;39;19965;-55
2021/04/24 06:02:43;;;;;;;;;;;;;;;4.67;58.81;96833.16;3629777;39;20298;-56
2021/04/24 06:05:11;;;;;;;;;;;;;;;4.87;59.14;96835.84;3611318;39;19943;-53
2021/04/24 06:07:39;;;;;;;;;;;;;;;5.07;59.07;96833.28;3610203;39;19935;-55
2021/04/24 06:10:08;;;;;;;;;;;;;;;5.32;57.59;96830.13;3621501;39;19939;-53
2021/04/24 06:12:35;;;;;;;;;;;;;;;5.37;57.22;96828.53;3617849;39;19939;-56
2021/04/24 06:15:04;;;;;;;;;;;;;;;5.53;56.41;96814.22;3619794;39;19943;-56
2021/04/24 06:17:31;;;;;;;;;;;;;;;5.68;56.09;96818.47;3617968;39;20139;-53
2021/04/24 06:19:58;;;;;;;;;;;;;;;5.76;54.25;96822.69;3619392;39;19943;-59
2021/04/24 06:22:25;;;;;;;;;;;;;;;5.89;53.08;96814.84;3617365;39;19943;-54
2021/04/24 06:24:52;;;;;;;;;;;;;;;6.08;53.43;96820.25;3617728;39;19945;-53
2021/04/24 06:27:18;;;;;;;;;;;;;;;6.24;54.14;96817.22;3619461;39;19941;-55
2021/04/24 06:29:45;;;;;;;;;;;;;;;6.30;53.16;96808.53;3620568;39;20273;-54
2021/04/24 06:32:12;;;;;;;;;;;;;;;6.40;53.11;96805.47;3627554;39;19957;-55
2021/04/24 06:34:39;;;;;;;;;;;;;;;6.51;53.13;96811.91;3623179;39;19957;-57
2021/04/24 06:37:07;;;;;;;;;;;;;;;6.56;51.12;96800.78;3620111;39;19951;-55
2021/04/24 06:39:34;;;;;;;;;;;;;;;6.64;51.77;96812.88;3612182;39;20283;-63
2021/04/24 06:42:02;;;;;;;;;;;;;;;6.74;51.42;96806.16;3618115;39;19937;-56
2021/04/24 06:44:29;;;;;;;;;;;;;;;6.82;50.80;96805.09;3620186;39;20553;-54
2021/04/24 06:46:56;;;;;;;;;;;;;;;6.89;51.36;96798.00;3615424;39;19974;-60
2021/04/24 06:49:23;;;;;;;;;;;;;;;6.90;50.95;96798.81;3617428;39;19943;-55
2021/04/24 06:51:50;;;;;;;;;;;;;;;6.97;49.63;96793.53;3614871;39;19953;-54
2021/04/24 06:54:17;;;;;;;;;;;;;;;7.05;51.34;96795.91;3605184;39;19957;-61
2021/04/24 06:56:44;;;;;;;;;;;;;;;7.19;49.73;96794.00;3616700;39;19935;-55
2021/04/24 06:59:11;;;;;;;;;;;;;;;7.29;49.32;96786.47;3624146;39;19941;-55
2021/04/24 07:01:38;;;;;;;;;;;;;;;7.43;50.40;96786.38;3617857;39;19981;-56
2021/04/24 07:04:05;;;;;;;;;;;;;;;7.56;48.24;96781.03;3617004;39;19939;-55
2021/04/24 07:06:33;;;;;;;;;;;;;;;7.66;48.90;96776.09;3619739;39;20445;-55
2021/04/24 07:09:02;;;;;;;;;;;;;;;7.79;47.05;96769.13;3628928;39;19935;-56
2021/04/24 07:11:33;;;;;;;;;;;;;;;7.83;47.62;96773.72;3620860;39;19947;-55
2021/04/24 07:14:00;;;;;;;;;;;;;;;7.82;45.56;96769.47;3620426;39;19939;-53
2021/04/24 07:16:27;;;;;;;;;;;;;;;7.93;46.23;96765.34;3628142;39;19943;-53
2021/04/24 07:18:54;;;;;;;;;;;;;;;7.98;45.80;96769.94;3618602;39;19945;-53
2021/04/24 07:21:21;;;;;;;;;;;;;;;8.13;44.95;96764.31;3616971;39;19943;-54
2021/04/24 07:23:48;;;;;;;;;;;;;;;8.24;45.51;96760.16;3617468;39;19958;-54
2021/04/24 07:26:16;;;;;;;;;;;;;;;8.36;44.77;96768.13;3619274;39;19949;-54
2021/04/24 07:28:43;;;;;;;;;;;;;;;8.38;43.76;96766.06;3616990;39;19943;-55
2021/04/24 07:31:13;;;;;;;;;;;;;;;8.50;43.08;96763.53;3615373;39;19947;-56
2021/04/24 07:33:41;;;;;;;;;;;;;;;8.60;43.28;96754.09;3615054;39;20734;-56
2021/04/24 07:36:09;;;;;;;;;;;;;;;8.70;42.66;96752.75;3616087;39;19953;-55
2021/04/24 07:38:36;;;;;;;;;;;;;;;8.80;41.05;96758.28;3621714;39;19935;-54
2021/04/24 07:41:03;;;;;;;;;;;;;;;8.91;41.34;96760.16;3616392;39;19942;-55
2021/04/24 07:43:31;;;;;;;;;;;;;;;9.00;40.09;96759.84;3617530;39;19977;-54
2021/04/24 07:45:57;;;;;;;;;;;;;;;9.11;40.00;96761.72;3619342;39;19977;-54
2021/04/24 07:48:24;;;;;;;;;;;;;;;9.23;38.56;96767.81;3618900;39;20304;-56
2021/04/24 07:50:51;;;;;;;;;;;;;;;9.08;39.63;96760.34;3616123;39;19935;-56
2021/04/24 07:53:20;;;;;;;;;;;;;;;9.26;38.40;96757.84;3619915;39;20271;-56
2021/04/24 07:55:47;;;;;;;;;;;;;;;9.50;38.74;96762.13;3622118;39;20023;-55
2021/04/24 07:58:16;;;;;;;;;;;;;;;9.41;37.83;96766.13;3609458;39;19949;-56
2021/04/24 08:00:43;;;;;;;;;;;;;;;9.43;37.79;96768.53;3616963;39;19949;-56
2021/04/24 08:03:10;;;;;;;;;;;;;;;9.61;38.44;96762.38;3621193;39;19936;-56
2021/04/24 08:05:37;;;;;;;;;;;;;;;9.75;37.62;96753.22;3625793;39;19941;-56
2021/04/24 08:08:04;;;;;;;;;;;;;;;9.87;36.34;96755.03;3627193;39;19953;-55
2021/04/24 08:10:32;;;;;;;;;;;;;;;9.87;36.78;96750.56;3617183;39;19945;-54
2021/04/24 08:13:00;;;;;;;;;;;;;;;9.90;36.18;96755.38;3616638;39;19973;-54
2021/04/24 08:15:27;;;;;;;;;;;;;;;10.18;37.49;96755.69;3622321;39;20284;-54
2021/04/24 08:17:54;;;;;;;;;;;;;;;10.35;36.69;96761.84;3631553;39;19943;-54
2021/04/24 08:20:21;;;;;;;;;;;;;;;10.52;35.42;96761.16;3623603;39;19944;-55
2021/04/24 08:22:49;;;;;;;;;;;;;;;10.65;35.50;96758.22;3619643;39;20292;-55
2021/04/24 08:25:15;;;;;;;;;;;;;;;10.96;34.96;96756.16;3621463;39;19943;-55
2021/04/24 08:27:43;;;;;;;;;;;;;;;11.25;34.19;96752.66;3621782;39;19955;-55
2021/04/24 08:30:10;;;;;;;;;;;;;;;11.45;34.47;96762.78;3619815;39;19939;-55
2021/04/24 08:32:38;;;;;;;;;;;;;;;11.19;33.14;96757.88;3629558;39;19935;-54
2021/04/24 08:35:06;;;;;;;;;;;;;;;11.00;34.46;96757.28;3629124;39;19935;-55
2021/04/24 08:37:34;;;;;;;;;;;;;;;11.25;35.31;96764.06;3619584;39;19939;-55
2021/04/24 08:40:03;;;;;;;;;;;;;;;11.17;34.13;96754.69;3611358;39;19947;-55
2021/04/24 08:42:31;;;;;;;;;;;;;;;11.34;33.57;96754.69;3621190;39;19947;-55
2021/04/24 08:44:58;;;;;;;;;;;;;;;11.52;34.35;96753.66;3618071;39;20347;-55
2021/04/24 08:47:26;;;;;;;;;;;;;;;11.73;33.45;96747.88;3618008;39;19946;-55
2021/04/24 08:49:54;;;;;;;;;;;;;;;11.84;32.39;96753.06;3617461;39;19942;-55
2021/04/24 08:52:21;;;;;;;;;;;;;;;11.97;32.33;96751.09;3621719;39;19935;-55
2021/04/24 08:54:49;;;;;;;;;;;;;;;12.07;32.26;96751.28;3622797;39;19961;-54
2021/04/24 08:57:16;;;;;;;;;;;;;;;12.16;32.07;96751.66;3620635;39;19943;-55
2021/04/24 08:59:43;;;;;;;;;;;;;;;12.25;31.40;96749.38;3616369;39;20348;-55
2021/04/24 09:02:10;;;;;;;;;;;;;;;12.20;32.08;96755.41;3608725;39;19938;-57
2021/04/24 09:04:37;;;;;;;;;;;;;;;12.22;33.13;96739.28;3616420;39;19949;-55
2021/04/24 09:07:04;;;;;;;;;;;;;;;12.36;32.17;96750.31;3622525;39;19969;-55
2021/04/24 09:09:31;;;;;;;;;;;;;;;12.39;30.86;96745.34;3619589;39;19943;-55
2021/04/24 09:12:01;;;;;;;;;;;;;;;12.39;29.94;96734.75;3617909;39;19935;-55
2021/04/24 09:14:30;;;;;;;;;;;;;;;12.24;31.90;96738.03;3624598;39;19935;-55
2021/04/24 09:16:57;;;;;;;;;;;;;;;12.27;31.10;96736.72;3623269;39;19968;-56
2021/04/24 09:19:34;;;;;;;;;;;;;;;12.59;30.43;96733.38;3620551;39;19947;-55
2021/04/24 09:22:11;;;;;;;;;;;;;;;12.83;31.17;96736.53;3621226;39;20410;-54
2021/04/24 09:24:39;;;;;;;;;;;;;;;12.87;31.59;96727.03;3609254;39;20760;-54
2021/04/24 09:27:06;;;;;;;;;;;;;;;13.08;29.58;96719.31;3624921;39;19945;-54
2021/04/24 09:30:10;;;;;;;;;;;;;;;13.32;30.92;96726.91;3629351;39;19939;-54
2021/04/24 09:32:37;;;;;;;;;;;;;;;13.38;29.29;96721.41;3617166;39;19941;-55
2021/04/24 09:35:05;;;;;;;;;;;;;;;-146.28;100.00;62448.88;3624475;39;19942;-55
2021/04/24 09:37:31;;;;;;;;;;;;;;;12.78;100.00;62448.88;3612962;39;19941;-55
2021/04/24 09:39:58;;;;;;;;;;;;;;;-146.28;100.00;62448.88;3619768;39;19943;-56
2021/04/24 09:42:33;;;;;;;;;;;;;;;-146.28;100.00;62448.88;3623566;39;19943;-55
2021/04/24 09:45:01;;;;;;;;;;;;;;;-146.28;100.00;62448.88;3619427;39;19944;-55
2021/04/24 09:47:44;;;;;;;;;;;;;;;-146.28;100.00;62448.88;3621246;39;19970;-56
2021/04/24 09:50:13;;;;;;;;;;;;;;;13.84;30.52;96689.13;3621832;39;20284;-55
2021/04/24 09:52:40;;;;;;;;;;;;;;;-146.28;100.00;62448.88;3623507;39;19949;-55
2021/04/24 09:55:12;;;;;;;;;;;;;;;13.98;28.29;96700.06;3613664;39;20035;-54
2021/04/24 09:57:40;;;;;;;;;;;;;;;13.68;28.58;96695.38;3622941;39;20027;-55
2021/04/24 10:00:10;;;;;;;;;;;;;;;13.57;28.32;96696.38;3609367;39;19953;-54
2021/04/24 10:02:43;;;;;;;;;;;;;;;-146.28;100.00;62448.88;3623225;39;19939;-54
2021/04/24 10:05:20;;;;;;;;;;;;;;;-146.28;100.00;62448.88;3611984;39;19939;-56
2021/04/24 10:07:51;;;;;;;;;;;;;;;-146.28;100.00;62448.88;3615091;39;19950;-54
2021/04/24 10:10:30;;;;;;;;;;;;;;;-146.28;100.00;62448.88;3621905;39;20471;-55
2021/04/24 10:12:59;;;;;;;;;;;;;;;-146.28;100.00;62448.88;3619409;39;20259;-57
2021/04/24 10:15:35;;;;;;;;;;;;;;;-146.28;100.00;62448.88;3622889;39;19946;-55
2021/04/24 10:18:03;;;;;;;;;;;;;;;-146.28;100.00;62448.88;3617320;39;20447;-56
2021/04/24 10:20:31;;;;;;;;;;;;;;;-146.28;100.00;62448.88;3622470;39;19947;-55
2021/04/24 10:22:58;;;;;;;;;;;;;;;-146.28;100.00;62448.88;3621611;39;19939;-54
2021/04/24 10:25:25;;;;;;;;;;;;;;;-146.28;100.00;62448.88;3622335;39;19943;-54
2021/04/24 10:27:52;;;;;;;;;;;;;;;-146.28;100.00;62448.88;3622195;39;19942;-54
2021/04/24 10:30:19;;;;;;;;;;;;;;;-146.28;100.00;62448.88;3620979;39;20199;-54
2021/04/24 10:32:46;;;;;;;;;;;;;;;-146.28;100.00;62448.88;3617818;39;19939;-55
2021/04/24 10:35:14;;;;;;;;;;;;;;;-146.28;100.00;62448.88;3621186;39;19938;-55
2021/04/24 10:37:44;;;;;;;;;;;;;;;-146.28;100.00;62448.88;3620511;39;19935;-55
2021/04/24 10:40:12;;;;;;;;;;;;;;;-146.28;100.00;62448.88;3618933;39;20606;-55
2021/04/24 10:42:42;;;;;;;;;;;;;;;-146.28;100.00;62448.88;3621191;39;19984;-55
2021/04/24 10:45:10;;;;;;;;;;;;;;;-146.28;100.00;62448.88;3620129;39;19949;-55
2021/04/24 10:47:38;;;;;;;;;;;;;;;-146.28;100.00;62448.88;3616897;39;19949;-61
2021/04/24 10:50:13;;;;;;;;;;;;;;;-146.28;100.00;62448.88;3610516;39;19950;-55
2021/04/24 10:52:42;;;;;;;;;;;;;;;-146.28;100.00;62448.88;3621710;39;19943;-54
2021/04/24 10:55:13;;;;;;;;;;;;;;;-146.28;100.00;62448.88;3621816;39;19951;-54
2021/04/24 10:57:41;;;;;;;;;;;;;;;-146.28;100.00;62448.88;3621510;39;20121;-55
2021/04/24 11:00:09;;;;;;;;;;;;;;;-146.28;100.00;62448.88;3618251;39;19953;-55
2021/04/24 11:02:38;;;;;;;;;;;;;;;-146.28;100.00;62448.88;3607326;39;19943;-55
2021/04/24 11:05:24;;;;;;;;;;;;;;;-146.28;100.00;62448.88;3619709;39;19965;-55
2021/04/24 11:08:10;;;;;;;;;;;;;;;-146.28;100.00;62448.88;3619451;39;19942;-55
2021/04/24 11:10:47;;;;;;;;;;;;;;;-146.28;100.00;62448.88;3608882;39;20391;-55
2021/04/24 11:13:15;;;;;;;;;;;;;;;-146.28;100.00;62448.88;3620156;39;20381;-55
2021/04/24 11:15:43;;;;;;;;;;;;;;;-146.28;100.00;62448.88;3621508;39;19935;-56
2021/04/24 11:18:11;;;;;;;;;;;;;;;-146.28;100.00;62448.88;3620410;39;19943;-55
2021/04/24 11:20:55;;;;;;;;;;;;;;;-146.28;100.00;62448.88;3614138;39;19949;-55
2021/04/24 11:23:45;;;;;;;;;;;;;;;-146.28;100.00;62448.88;3620952;39;19955;-54
2021/04/24 11:26:14;;;;;;;;;;;;;;;-146.28;100.00;62448.88;3615832;39;19949;-57
2021/04/24 11:28:56;;;;;;;;;;;;;;;-146.28;100.00;62448.88;3619240;39;19947;-57
2021/04/24 11:31:42;;;;;;;;;;;;;;;-146.28;100.00;62448.88;3617554;39;20467;-56
2021/04/24 11:34:23;;;;;;;;;;;;;;;-146.28;100.00;62448.88;3607727;39;19935;-57
2021/04/24 11:37:09;;;;;;;;;;;;;;;-146.28;100.00;62448.88;3611505;39;19943;-56
2021/04/24 11:39:36;;;;;;;;;;;;;;;-146.28;100.00;62448.88;3616997;39;19947;-56
2021/04/24 11:42:26;;;;;;;;;;;;;;;-146.28;100.00;62448.88;3619888;39;19939;-55
2021/04/24 11:44:53;;;;;;;;;;;;;;;-146.28;100.00;62448.88;3608830;39;19969;-56
2021/04/24 11:47:39;;;;;;;;;;;;;;;-146.28;100.00;62448.88;3622276;39;19943;-54
2021/04/24 11:50:07;;;;;;;;;;;;;;;-146.28;100.00;62448.88;3621403;39;20204;-54
2021/04/24 11:52:34;;;;;;;;;;;;;;;-146.28;100.00;62448.88;3615145;39;19946;-54
2021/04/24 11:55:01;;;;;;;;;;;;;;;-146.28;100.00;62448.88;3620868;39;19945;-54
2021/04/24 11:57:29;;;;;;;;;;;;;;;-146.28;100.00;62448.88;3622262;39;19953;-55
2021/04/24 11:59:56;;;;;;;;;;;;;;;-146.28;100.00;62448.88;3620927;39;19943;-54
2021/04/24 12:02:26;;;;;;;;;;;;;;;-146.28;100.00;62448.88;3613421;39;19942;-55
2021/04/24 12:05:02;;;;;;;;;;;;;;;-146.28;100.00;62448.88;3614512;39;19938;-56
2021/04/24 12:07:30;;;;;;;;;;;;;;;-146.28;100.00;62448.88;3631906;39;20020;-56
2021/04/24 12:09:58;;;;;;;;;;;;;;;-146.28;100.00;62448.88;3618810;39;19935;-55
2021/04/24 12:12:34;;;;;;;;;;;;;;;-146.28;100.00;62448.88;3622404;39;19951;-55
2021/04/24 12:15:05;;;;;;;;;;;;;;;-146.28;100.00;62448.88;3614024;39;19939;-55
2021/04/24 12:17:32;;;;;;;;;;;;;;;-146.28;100.00;62448.88;3623495;39;19941;-56
2021/04/24 12:19:59;;;;;;;;;;;;;;;-146.28;100.00;62448.88;3622982;39;20088;-55
2021/04/24 12:22:26;;;;;;;;;;;;;;;-146.28;100.00;62448.88;3623819;39;20269;-55
2021/04/24 12:24:58;;;;;;;;;;;;;;;-146.28;100.00;62448.88;3620290;39;19947;-55
2021/04/24 12:27:24;;;;;;;;;;;;;;;-146.28;100.00;62448.88;3622270;39;19950;-56
2021/04/24 12:29:52;;;;;;;;;;;;;;;-146.28;100.00;62448.88;3629398;39;19943;-56
2021/04/24 12:32:20;;;;;;;;;;;;;;;-146.28;100.00;62448.88;3623367;39;19939;-56
2021/04/24 12:34:47;;;;;;;;;;;;;;;-146.28;100.00;62448.88;3621331;39;19943;-56
2021/04/24 12:37:19;;;;;;;;;;;;;;;-146.28;100.00;62448.88;3622112;39;19949;-56
2021/04/24 12:40:09;;;;;;;;;;;;;;;-146.28;100.00;62448.88;3619613;39;19935;-56
2021/04/24 12:42:36;;;;;;;;;;;;;;;-146.28;100.00;62448.88;3618944;39;19939;-56
2021/04/24 12:45:11;;;;;;;;;;;;;;;-146.28;100.00;62448.88;3618137;39;19936;-55
2021/04/24 12:47:39;;;;;;;;;;;;;;;-146.28;100.00;62448.88;3621021;39;20186;-57
2021/04/24 12:50:08;;;;;;;;;;;;;;;-146.28;100.00;62448.88;3618712;39;19961;-56